sensor_id;sensor_type;location;lat;lon;timestamp;P1;durP1;ratioP1;P2;durP2;ratioP2
50393;SDS011;36308;46.312;25.288;2023-09-19T00:01:42;6.38;;;4.20;;
50393;SDS011;36308;46.312;25.288;2023-09-19T00:04:11;5.93;;;3.97;;
50393;SDS011;36308;46.312;25.288;2023-09-19T00:06:37;7.38;;;4.40;;
50393;SDS011;36308;46.312;25.288;2023-09-19T00:09:03;7.00;;;4.18;;
50393;SDS011;36308;46.312;25.288;2023-09-19T00:11:29;6.35;;;4.38;;
50393;SDS011;36308;46.312;25.288;2023-09-19T00:13:56;6.97;;;4.55;;
50393;SDS011;36308;46.312;25.288;2023-09-19T00:16:24;6.05;;;4.28;;
50393;SDS011;36308;46.312;25.288;2023-09-19T00:18:50;8.23;;;4.63;;
50393;SDS011;36308;46.312;25.288;2023-09-19T00:21:16;7.55;;;4.00;;
50393;SDS011;36308;46.312;25.288;2023-09-19T00:23:41;6.82;;;4.22;;
50393;SDS011;36308;46.312;25.288;2023-09-19T00:26:07;8.40;;;4.20;;
50393;SDS011;36308;46.312;25.288;2023-09-19T00:28:32;5.38;;;3.63;;
50393;SDS011;36308;46.312;25.288;2023-09-19T00:30:58;7.15;;;4.38;;
50393;SDS011;36308;46.312;25.288;2023-09-19T00:33:26;7.80;;;4.88;;
50393;SDS011;36308;46.312;25.288;2023-09-19T00:35:54;7.43;;;4.95;;
50393;SDS011;36308;46.312;25.288;2023-09-19T00:38:22;7.20;;;4.35;;
50393;SDS011;36308;46.312;25.288;2023-09-19T00:40:52;7.43;;;4.60;;
50393;SDS011;36308;46.312;25.288;2023-09-19T00:43:19;6.65;;;4.25;;
50393;SDS011;36308;46.312;25.288;2023-09-19T00:45:46;7.25;;;4.78;;
50393;SDS011;36308;46.312;25.288;2023-09-19T00:48:15;6.32;;;4.45;;
50393;SDS011;36308;46.312;25.288;2023-09-19T00:50:41;5.80;;;4.30;;
50393;SDS011;36308;46.312;25.288;2023-09-19T00:53:08;6.85;;;4.82;;
50393;SDS011;36308;46.312;25.288;2023-09-19T00:55:35;6.40;;;4.00;;
50393;SDS011;36308;46.312;25.288;2023-09-19T00:58:02;5.47;;;4.03;;
50393;SDS011;36308;46.312;25.288;2023-09-19T01:00:28;10.05;;;4.43;;
50393;SDS011;36308;46.312;25.288;2023-09-19T01:02:54;7.15;;;4.75;;
50393;SDS011;36308;46.312;25.288;2023-09-19T01:05:19;6.28;;;4.43;;
50393;SDS011;36308;46.312;25.288;2023-09-19T01:07:45;7.25;;;4.90;;
50393;SDS011;36308;46.312;25.288;2023-09-19T01:10:14;6.55;;;4.80;;
50393;SDS011;36308;46.312;25.288;2023-09-19T01:15:17;7.22;;;4.78;;
50393;SDS011;36308;46.312;25.288;2023-09-19T01:17:48;7.45;;;5.15;;
50393;SDS011;36308;46.312;25.288;2023-09-19T01:20:27;7.28;;;4.70;;
50393;SDS011;36308;46.312;25.288;2023-09-19T01:32:05;6.38;;;4.22;;
50393;SDS011;36308;46.312;25.288;2023-09-19T01:37:16;6.70;;;4.60;;
50393;SDS011;36308;46.312;25.288;2023-09-19T01:39:48;5.82;;;4.65;;
50393;SDS011;36308;46.312;25.288;2023-09-19T01:51:01;7.32;;;5.65;;
50393;SDS011;36308;46.312;25.288;2023-09-19T01:54:15;6.75;;;4.47;;
50393;SDS011;36308;46.312;25.288;2023-09-19T01:57:13;6.15;;;4.38;;
50393;SDS011;36308;46.312;25.288;2023-09-19T01:59:31;6.70;;;4.70;;
50393;SDS011;36308;46.312;25.288;2023-09-19T02:02:02;6.50;;;4.65;;
50393;SDS011;36308;46.312;25.288;2023-09-19T02:04:32;8.25;;;4.95;;
50393;SDS011;36308;46.312;25.288;2023-09-19T02:07:00;6.50;;;5.00;;
50393;SDS011;36308;46.312;25.288;2023-09-19T02:09:26;7.47;;;4.65;;
50393;SDS011;36308;46.312;25.288;2023-09-19T02:11:52;7.03;;;4.78;;
50393;SDS011;36308;46.312;25.288;2023-09-19T02:14:17;7.60;;;4.97;;
50393;SDS011;36308;46.312;25.288;2023-09-19T02:16:44;9.27;;;5.13;;
50393;SDS011;36308;46.312;25.288;2023-09-19T02:19:10;8.73;;;4.90;;
50393;SDS011;36308;46.312;25.288;2023-09-19T02:21:36;8.63;;;4.68;;
50393;SDS011;36308;46.312;25.288;2023-09-19T02:24:02;7.10;;;4.90;;
50393;SDS011;36308;46.312;25.288;2023-09-19T02:26:28;6.28;;;4.60;;
50393;SDS011;36308;46.312;25.288;2023-09-19T02:28:53;6.55;;;4.68;;
50393;SDS011;36308;46.312;25.288;2023-09-19T02:31:19;7.32;;;4.35;;
50393;SDS011;36308;46.312;25.288;2023-09-19T02:33:44;5.47;;;4.13;;
50393;SDS011;36308;46.312;25.288;2023-09-19T02:36:11;7.07;;;4.57;;
50393;SDS011;36308;46.312;25.288;2023-09-19T02:38:36;7.55;;;4.35;;
50393;SDS011;36308;46.312;25.288;2023-09-19T02:41:02;6.60;;;4.90;;
50393;SDS011;36308;46.312;25.288;2023-09-19T02:43:28;6.45;;;4.40;;
50393;SDS011;36308;46.312;25.288;2023-09-19T02:45:53;8.98;;;4.80;;
50393;SDS011;36308;46.312;25.288;2023-09-19T02:48:20;6.03;;;4.55;;
50393;SDS011;36308;46.312;25.288;2023-09-19T02:50:46;8.77;;;4.80;;
50393;SDS011;36308;46.312;25.288;2023-09-19T02:53:14;6.25;;;4.70;;
50393;SDS011;36308;46.312;25.288;2023-09-19T02:55:40;7.70;;;4.93;;
50393;SDS011;36308;46.312;25.288;2023-09-19T02:58:06;7.07;;;4.75;;
50393;SDS011;36308;46.312;25.288;2023-09-19T03:00:39;6.70;;;4.93;;
50393;SDS011;36308;46.312;25.288;2023-09-19T03:03:07;8.15;;;6.00;;
50393;SDS011;36308;46.312;25.288;2023-09-19T03:05:33;9.13;;;6.13;;
50393;SDS011;36308;46.312;25.288;2023-09-19T03:07:59;7.80;;;6.20;;
50393;SDS011;36308;46.312;25.288;2023-09-19T03:10:28;8.30;;;6.13;;
50393;SDS011;36308;46.312;25.288;2023-09-19T03:12:55;8.43;;;5.13;;
50393;SDS011;36308;46.312;25.288;2023-09-19T03:15:20;6.95;;;5.40;;
50393;SDS011;36308;46.312;25.288;2023-09-19T03:17:47;7.88;;;5.10;;
50393;SDS011;36308;46.312;25.288;2023-09-19T03:20:14;8.65;;;5.00;;
50393;SDS011;36308;46.312;25.288;2023-09-19T03:22:42;7.35;;;5.30;;
50393;SDS011;36308;46.312;25.288;2023-09-19T03:25:08;11.10;;;6.13;;
50393;SDS011;36308;46.312;25.288;2023-09-19T03:27:35;16.98;;;14.07;;
50393;SDS011;36308;46.312;25.288;2023-09-19T03:30:01;9.82;;;7.45;;
50393;SDS011;36308;46.312;25.288;2023-09-19T03:32:31;7.53;;;5.80;;
50393;SDS011;36308;46.312;25.288;2023-09-19T03:34:57;8.88;;;5.53;;
50393;SDS011;36308;46.312;25.288;2023-09-19T03:37:22;7.40;;;5.18;;
50393;SDS011;36308;46.312;25.288;2023-09-19T03:39:48;8.85;;;5.45;;
50393;SDS011;36308;46.312;25.288;2023-09-19T03:42:13;7.28;;;5.57;;
50393;SDS011;36308;46.312;25.288;2023-09-19T03:44:39;8.27;;;5.93;;
50393;SDS011;36308;46.312;25.288;2023-09-19T03:47:04;9.23;;;6.43;;
50393;SDS011;36308;46.312;25.288;2023-09-19T03:49:30;10.52;;;5.68;;
50393;SDS011;36308;46.312;25.288;2023-09-19T03:51:56;8.85;;;5.93;;
50393;SDS011;36308;46.312;25.288;2023-09-19T03:54:22;8.93;;;6.78;;
50393;SDS011;36308;46.312;25.288;2023-09-19T03:56:47;12.15;;;7.88;;
50393;SDS011;36308;46.312;25.288;2023-09-19T03:59:13;20.73;;;13.88;;
50393;SDS011;36308;46.312;25.288;2023-09-19T04:01:38;19.60;;;12.68;;
50393;SDS011;36308;46.312;25.288;2023-09-19T04:04:06;13.85;;;8.65;;
50393;SDS011;36308;46.312;25.288;2023-09-19T04:06:34;10.65;;;7.35;;
50393;SDS011;36308;46.312;25.288;2023-09-19T04:09:00;12.13;;;7.90;;
50393;SDS011;36308;46.312;25.288;2023-09-19T04:11:27;9.90;;;6.72;;
50393;SDS011;36308;46.312;25.288;2023-09-19T04:13:52;9.52;;;6.47;;
50393;SDS011;36308;46.312;25.288;2023-09-19T04:16:18;10.18;;;6.03;;
50393;SDS011;36308;46.312;25.288;2023-09-19T04:18:44;8.73;;;5.50;;
50393;SDS011;36308;46.312;25.288;2023-09-19T04:21:10;8.82;;;5.40;;
50393;SDS011;36308;46.312;25.288;2023-09-19T04:23:35;7.18;;;4.80;;
50393;SDS011;36308;46.312;25.288;2023-09-19T04:26:01;7.80;;;4.95;;
50393;SDS011;36308;46.312;25.288;2023-09-19T04:28:29;7.40;;;5.32;;
50393;SDS011;36308;46.312;25.288;2023-09-19T04:30:54;8.35;;;5.43;;
50393;SDS011;36308;46.312;25.288;2023-09-19T04:33:20;9.60;;;6.35;;
50393;SDS011;36308;46.312;25.288;2023-09-19T04:35:48;10.70;;;6.82;;
50393;SDS011;36308;46.312;25.288;2023-09-19T04:38:14;9.50;;;6.68;;
50393;SDS011;36308;46.312;25.288;2023-09-19T04:40:40;10.27;;;7.18;;
50393;SDS011;36308;46.312;25.288;2023-09-19T04:43:06;10.02;;;6.57;;
50393;SDS011;36308;46.312;25.288;2023-09-19T04:45:32;9.75;;;6.50;;
50393;SDS011;36308;46.312;25.288;2023-09-19T04:47:58;11.07;;;7.20;;
50393;SDS011;36308;46.312;25.288;2023-09-19T04:50:23;13.55;;;6.63;;
50393;SDS011;36308;46.312;25.288;2023-09-19T04:52:51;10.45;;;7.13;;
50393;SDS011;36308;46.312;25.288;2023-09-19T04:55:17;13.70;;;8.23;;
50393;SDS011;36308;46.312;25.288;2023-09-19T04:57:44;13.13;;;7.60;;
50393;SDS011;36308;46.312;25.288;2023-09-19T05:00:11;12.77;;;7.50;;
50393;SDS011;36308;46.312;25.288;2023-09-19T05:02:40;14.88;;;7.22;;
50393;SDS011;36308;46.312;25.288;2023-09-19T05:05:07;15.60;;;7.75;;
50393;SDS011;36308;46.312;25.288;2023-09-19T05:07:33;11.00;;;7.78;;
50393;SDS011;36308;46.312;25.288;2023-09-19T05:10:00;18.13;;;9.35;;
50393;SDS011;36308;46.312;25.288;2023-09-19T05:12:26;11.43;;;7.70;;
50393;SDS011;36308;46.312;25.288;2023-09-19T05:14:52;11.10;;;6.60;;
50393;SDS011;36308;46.312;25.288;2023-09-19T05:17:18;15.07;;;7.95;;
50393;SDS011;36308;46.312;25.288;2023-09-19T05:19:43;12.27;;;7.90;;
50393;SDS011;36308;46.312;25.288;2023-09-19T05:22:09;14.50;;;8.35;;
50393;SDS011;36308;46.312;25.288;2023-09-19T05:24:34;15.23;;;7.30;;
50393;SDS011;36308;46.312;25.288;2023-09-19T05:26:59;13.32;;;7.20;;
50393;SDS011;36308;46.312;25.288;2023-09-19T05:29:26;9.63;;;6.70;;
50393;SDS011;36308;46.312;25.288;2023-09-19T05:31:51;12.52;;;7.40;;
50393;SDS011;36308;46.312;25.288;2023-09-19T05:34:19;13.20;;;7.18;;
50393;SDS011;36308;46.312;25.288;2023-09-19T05:36:45;12.80;;;7.88;;
50393;SDS011;36308;46.312;25.288;2023-09-19T05:39:10;16.73;;;7.25;;
50393;SDS011;36308;46.312;25.288;2023-09-19T05:41:37;42.25;;;10.23;;
50393;SDS011;36308;46.312;25.288;2023-09-19T05:44:05;15.77;;;7.55;;
50393;SDS011;36308;46.312;25.288;2023-09-19T05:46:32;9.20;;;6.55;;
50393;SDS011;36308;46.312;25.288;2023-09-19T05:48:57;23.70;;;8.15;;
50393;SDS011;36308;46.312;25.288;2023-09-19T05:51:23;17.35;;;8.25;;
50393;SDS011;36308;46.312;25.288;2023-09-19T05:53:54;25.23;;;8.15;;
50393;SDS011;36308;46.312;25.288;2023-09-19T05:56:20;11.63;;;7.45;;
50393;SDS011;36308;46.312;25.288;2023-09-19T05:58:45;13.10;;;7.30;;
50393;SDS011;36308;46.312;25.288;2023-09-19T06:01:11;9.93;;;6.82;;
50393;SDS011;36308;46.312;25.288;2023-09-19T06:03:37;16.90;;;7.03;;
50393;SDS011;36308;46.312;25.288;2023-09-19T06:06:02;15.15;;;7.32;;
50393;SDS011;36308;46.312;25.288;2023-09-19T06:08:29;10.30;;;6.43;;
50393;SDS011;36308;46.312;25.288;2023-09-19T06:10:55;10.88;;;6.80;;
50393;SDS011;36308;46.312;25.288;2023-09-19T06:13:21;11.40;;;8.52;;
50393;SDS011;36308;46.312;25.288;2023-09-19T06:15:46;11.73;;;7.13;;
50393;SDS011;36308;46.312;25.288;2023-09-19T06:18:12;9.02;;;7.00;;
50393;SDS011;36308;46.312;25.288;2023-09-19T06:20:47;10.65;;;6.35;;
50393;SDS011;36308;46.312;25.288;2023-09-19T06:23:16;10.07;;;5.75;;
50393;SDS011;36308;46.312;25.288;2023-09-19T06:25:42;9.60;;;6.30;;
50393;SDS011;36308;46.312;25.288;2023-09-19T06:28:10;12.27;;;6.18;;
50393;SDS011;36308;46.312;25.288;2023-09-19T06:30:39;20.55;;;10.23;;
50393;SDS011;36308;46.312;25.288;2023-09-19T06:33:05;13.75;;;9.43;;
50393;SDS011;36308;46.312;25.288;2023-09-19T06:35:32;16.60;;;10.85;;
50393;SDS011;36308;46.312;25.288;2023-09-19T06:37:58;18.10;;;12.00;;
50393;SDS011;36308;46.312;25.288;2023-09-19T06:40:24;20.23;;;11.50;;
50393;SDS011;36308;46.312;25.288;2023-09-19T06:42:50;18.98;;;11.15;;
50393;SDS011;36308;46.312;25.288;2023-09-19T06:45:17;15.02;;;10.35;;
50393;SDS011;36308;46.312;25.288;2023-09-19T06:47:47;18.55;;;10.30;;
50393;SDS011;36308;46.312;25.288;2023-09-19T06:50:17;17.15;;;9.80;;
50393;SDS011;36308;46.312;25.288;2023-09-19T06:52:45;20.38;;;8.88;;
50393;SDS011;36308;46.312;25.288;2023-09-19T06:55:15;15.35;;;8.07;;
50393;SDS011;36308;46.312;25.288;2023-09-19T06:57:44;14.00;;;8.02;;
50393;SDS011;36308;46.312;25.288;2023-09-19T07:00:10;17.27;;;8.05;;
50393;SDS011;36308;46.312;25.288;2023-09-19T07:03:02;15.73;;;7.97;;
50393;SDS011;36308;46.312;25.288;2023-09-19T07:05:30;13.48;;;7.88;;
50393;SDS011;36308;46.312;25.288;2023-09-19T07:07:57;14.23;;;7.00;;
50393;SDS011;36308;46.312;25.288;2023-09-19T07:10:24;17.67;;;8.60;;
50393;SDS011;36308;46.312;25.288;2023-09-19T07:13:00;12.85;;;7.85;;
50393;SDS011;36308;46.312;25.288;2023-09-19T07:15:27;13.43;;;8.52;;
50393;SDS011;36308;46.312;25.288;2023-09-19T07:17:54;19.10;;;8.05;;
50393;SDS011;36308;46.312;25.288;2023-09-19T07:20:21;14.50;;;7.18;;
50393;SDS011;36308;46.312;25.288;2023-09-19T07:22:47;16.92;;;8.32;;
50393;SDS011;36308;46.312;25.288;2023-09-19T07:25:15;15.18;;;8.23;;
50393;SDS011;36308;46.312;25.288;2023-09-19T07:27:41;11.55;;;8.52;;
50393;SDS011;36308;46.312;25.288;2023-09-19T07:30:07;14.75;;;8.02;;
50393;SDS011;36308;46.312;25.288;2023-09-19T07:32:33;15.55;;;8.05;;
50393;SDS011;36308;46.312;25.288;2023-09-19T07:35:01;19.60;;;8.10;;
50393;SDS011;36308;46.312;25.288;2023-09-19T07:37:28;15.95;;;8.32;;
50393;SDS011;36308;46.312;25.288;2023-09-19T07:39:56;13.30;;;8.02;;
50393;SDS011;36308;46.312;25.288;2023-09-19T07:42:22;14.93;;;7.10;;
50393;SDS011;36308;46.312;25.288;2023-09-19T07:44:47;13.82;;;7.70;;
50393;SDS011;36308;46.312;25.288;2023-09-19T07:47:15;10.95;;;7.10;;
50393;SDS011;36308;46.312;25.288;2023-09-19T07:49:41;10.60;;;7.50;;
50393;SDS011;36308;46.312;25.288;2023-09-19T07:52:09;10.50;;;7.13;;
50393;SDS011;36308;46.312;25.288;2023-09-19T07:54:35;15.57;;;7.75;;
50393;SDS011;36308;46.312;25.288;2023-09-19T07:57:02;86.00;;;19.73;;
50393;SDS011;36308;46.312;25.288;2023-09-19T07:59:27;52.42;;;13.25;;
50393;SDS011;36308;46.312;25.288;2023-09-19T08:01:53;21.17;;;8.20;;
50393;SDS011;36308;46.312;25.288;2023-09-19T08:04:19;14.77;;;8.18;;
50393;SDS011;36308;46.312;25.288;2023-09-19T08:06:45;14.60;;;8.07;;
50393;SDS011;36308;46.312;25.288;2023-09-19T08:09:10;13.35;;;7.97;;
50393;SDS011;36308;46.312;25.288;2023-09-19T08:11:37;13.30;;;7.72;;
50393;SDS011;36308;46.312;25.288;2023-09-19T08:14:04;9.25;;;7.07;;
50393;SDS011;36308;46.312;25.288;2023-09-19T08:16:32;14.13;;;7.32;;
50393;SDS011;36308;46.312;25.288;2023-09-19T08:18:58;13.02;;;7.38;;
50393;SDS011;36308;46.312;25.288;2023-09-19T08:21:23;15.23;;;7.80;;
50393;SDS011;36308;46.312;25.288;2023-09-19T08:23:50;14.13;;;7.63;;
50393;SDS011;36308;46.312;25.288;2023-09-19T08:26:35;13.57;;;7.32;;
50393;SDS011;36308;46.312;25.288;2023-09-19T08:29:02;12.68;;;6.60;;
50393;SDS011;36308;46.312;25.288;2023-09-19T08:31:30;12.80;;;7.97;;
50393;SDS011;36308;46.312;25.288;2023-09-19T08:33:55;13.70;;;8.70;;
50393;SDS011;36308;46.312;25.288;2023-09-19T08:36:21;13.95;;;9.27;;
50393;SDS011;36308;46.312;25.288;2023-09-19T08:38:47;16.80;;;9.30;;
50393;SDS011;36308;46.312;25.288;2023-09-19T08:41:14;15.82;;;8.70;;
50393;SDS011;36308;46.312;25.288;2023-09-19T08:43:42;15.95;;;8.15;;
50393;SDS011;36308;46.312;25.288;2023-09-19T08:46:11;15.45;;;9.02;;
50393;SDS011;36308;46.312;25.288;2023-09-19T08:48:46;18.00;;;9.40;;
50393;SDS011;36308;46.312;25.288;2023-09-19T08:51:30;14.40;;;9.02;;
50393;SDS011;36308;46.312;25.288;2023-09-19T08:54:08;14.82;;;8.20;;
50393;SDS011;36308;46.312;25.288;2023-09-19T08:59:05;10.02;;;7.18;;
50393;SDS011;36308;46.312;25.288;2023-09-19T09:01:34;15.90;;;7.95;;
50393;SDS011;36308;46.312;25.288;2023-09-19T09:04:02;16.27;;;8.27;;
50393;SDS011;36308;46.312;25.288;2023-09-19T09:06:28;20.13;;;8.70;;
50393;SDS011;36308;46.312;25.288;2023-09-19T09:08:55;11.95;;;7.45;;
50393;SDS011;36308;46.312;25.288;2023-09-19T09:11:21;12.07;;;7.78;;
50393;SDS011;36308;46.312;25.288;2023-09-19T09:13:49;13.27;;;7.75;;
50393;SDS011;36308;46.312;25.288;2023-09-19T09:16:15;11.35;;;8.00;;
50393;SDS011;36308;46.312;25.288;2023-09-19T09:18:44;10.55;;;6.22;;
50393;SDS011;36308;46.312;25.288;2023-09-19T09:21:10;9.43;;;6.20;;
50393;SDS011;36308;46.312;25.288;2023-09-19T09:23:37;8.95;;;6.28;;
50393;SDS011;36308;46.312;25.288;2023-09-19T09:26:03;9.02;;;5.97;;
50393;SDS011;36308;46.312;25.288;2023-09-19T09:28:32;8.60;;;5.55;;
50393;SDS011;36308;46.312;25.288;2023-09-19T09:31:00;9.32;;;5.53;;
50393;SDS011;36308;46.312;25.288;2023-09-19T09:33:37;8.43;;;5.00;;
50393;SDS011;36308;46.312;25.288;2023-09-19T09:36:04;6.80;;;5.50;;
50393;SDS011;36308;46.312;25.288;2023-09-19T09:38:47;8.30;;;4.95;;
50393;SDS011;36308;46.312;25.288;2023-09-19T09:41:20;6.88;;;5.15;;
50393;SDS011;36308;46.312;25.288;2023-09-19T09:44:15;8.68;;;4.63;;
50393;SDS011;36308;46.312;25.288;2023-09-19T09:46:45;7.15;;;4.80;;
50393;SDS011;36308;46.312;25.288;2023-09-19T09:49:18;6.65;;;4.13;;
50393;SDS011;36308;46.312;25.288;2023-09-19T09:54:58;6.70;;;5.03;;
50393;SDS011;36308;46.312;25.288;2023-09-19T09:57:33;8.48;;;5.13;;
50393;SDS011;36308;46.312;25.288;2023-09-19T09:59:59;8.57;;;5.18;;
50393;SDS011;36308;46.312;25.288;2023-09-19T10:02:38;7.60;;;4.80;;
50393;SDS011;36308;46.312;25.288;2023-09-19T10:05:20;8.60;;;4.47;;
50393;SDS011;36308;46.312;25.288;2023-09-19T10:07:52;6.63;;;4.75;;
50393;SDS011;36308;46.312;25.288;2023-09-19T10:10:38;5.93;;;4.53;;
50393;SDS011;36308;46.312;25.288;2023-09-19T10:13:06;8.43;;;4.78;;
50393;SDS011;36308;46.312;25.288;2023-09-19T10:15:37;6.85;;;4.65;;
50393;SDS011;36308;46.312;25.288;2023-09-19T10:18:06;10.57;;;4.40;;
50393;SDS011;36308;46.312;25.288;2023-09-19T10:20:44;8.35;;;5.25;;
50393;SDS011;36308;46.312;25.288;2023-09-19T10:23:11;7.82;;;5.07;;
50393;SDS011;36308;46.312;25.288;2023-09-19T10:25:43;8.32;;;5.15;;
50393;SDS011;36308;46.312;25.288;2023-09-19T10:28:12;8.30;;;4.70;;
50393;SDS011;36308;46.312;25.288;2023-09-19T10:30:43;7.50;;;4.60;;
50393;SDS011;36308;46.312;25.288;2023-09-19T10:33:12;7.50;;;4.88;;
50393;SDS011;36308;46.312;25.288;2023-09-19T10:35:47;7.22;;;4.80;;
50393;SDS011;36308;46.312;25.288;2023-09-19T10:38:19;6.30;;;4.40;;
50393;SDS011;36308;46.312;25.288;2023-09-19T10:40:49;9.80;;;5.10;;
50393;SDS011;36308;46.312;25.288;2023-09-19T10:43:17;9.43;;;5.65;;
50393;SDS011;36308;46.312;25.288;2023-09-19T10:45:44;10.07;;;5.40;;
50393;SDS011;36308;46.312;25.288;2023-09-19T10:48:14;7.55;;;5.13;;
50393;SDS011;36308;46.312;25.288;2023-09-19T10:53:29;7.25;;;4.68;;
50393;SDS011;36308;46.312;25.288;2023-09-19T10:56:07;8.05;;;4.57;;
50393;SDS011;36308;46.312;25.288;2023-09-19T10:58:42;6.53;;;4.82;;
50393;SDS011;36308;46.312;25.288;2023-09-19T11:01:10;8.23;;;4.55;;
50393;SDS011;36308;46.312;25.288;2023-09-19T11:03:43;7.57;;;5.22;;
50393;SDS011;36308;46.312;25.288;2023-09-19T11:06:13;6.70;;;4.68;;
50393;SDS011;36308;46.312;25.288;2023-09-19T11:11:47;10.20;;;5.05;;
50393;SDS011;36308;46.312;25.288;2023-09-19T11:33:22;8.23;;;5.65;;
50393;SDS011;36308;46.312;25.288;2023-09-19T11:36:06;8.00;;;5.00;;
50393;SDS011;36308;46.312;25.288;2023-09-19T11:41:36;6.38;;;4.68;;
50393;SDS011;36308;46.312;25.288;2023-09-19T11:46:32;8.85;;;4.57;;
50393;SDS011;36308;46.312;25.288;2023-09-19T11:49:08;7.28;;;4.68;;
50393;SDS011;36308;46.312;25.288;2023-09-19T11:51:44;7.57;;;5.57;;
50393;SDS011;36308;46.312;25.288;2023-09-19T11:54:11;6.88;;;5.70;;
50393;SDS011;36308;46.312;25.288;2023-09-19T11:56:46;6.90;;;6.10;;
50393;SDS011;36308;46.312;25.288;2023-09-19T11:59:21;12.43;;;7.18;;
50393;SDS011;36308;46.312;25.288;2023-09-19T12:01:51;18.70;;;9.07;;
50393;SDS011;36308;46.312;25.288;2023-09-19T12:04:33;11.55;;;7.88;;
50393;SDS011;36308;46.312;25.288;2023-09-19T12:07:03;13.80;;;7.60;;
50393;SDS011;36308;46.312;25.288;2023-09-19T12:09:31;14.43;;;7.72;;
50393;SDS011;36308;46.312;25.288;2023-09-19T12:11:57;14.90;;;8.07;;
50393;SDS011;36308;46.312;25.288;2023-09-19T12:14:23;12.68;;;7.35;;
50393;SDS011;36308;46.312;25.288;2023-09-19T12:16:57;14.85;;;9.40;;
50393;SDS011;36308;46.312;25.288;2023-09-19T12:19:23;13.00;;;8.00;;
50393;SDS011;36308;46.312;25.288;2023-09-19T12:21:57;13.48;;;8.30;;
50393;SDS011;36308;46.312;25.288;2023-09-19T12:24:29;13.30;;;8.00;;
50393;SDS011;36308;46.312;25.288;2023-09-19T12:27:02;12.95;;;8.25;;
50393;SDS011;36308;46.312;25.288;2023-09-19T12:29:41;12.30;;;7.93;;
50393;SDS011;36308;46.312;25.288;2023-09-19T12:32:11;17.05;;;8.40;;
50393;SDS011;36308;46.312;25.288;2023-09-19T12:34:38;12.10;;;7.65;;
50393;SDS011;36308;46.312;25.288;2023-09-19T12:37:15;14.10;;;7.95;;
50393;SDS011;36308;46.312;25.288;2023-09-19T12:39:46;11.63;;;7.85;;
50393;SDS011;36308;46.312;25.288;2023-09-19T12:42:20;13.18;;;8.98;;
50393;SDS011;36308;46.312;25.288;2023-09-19T12:44:49;12.15;;;8.88;;
50393;SDS011;36308;46.312;25.288;2023-09-19T12:47:21;14.73;;;9.23;;
50393;SDS011;36308;46.312;25.288;2023-09-19T12:52:37;11.70;;;8.48;;
50393;SDS011;36308;46.312;25.288;2023-09-19T12:55:04;10.98;;;7.28;;
50393;SDS011;36308;46.312;25.288;2023-09-19T12:57:32;9.80;;;7.13;;
50393;SDS011;36308;46.312;25.288;2023-09-19T13:00:02;14.18;;;8.48;;
50393;SDS011;36308;46.312;25.288;2023-09-19T13:02:32;12.35;;;8.63;;
50393;SDS011;36308;46.312;25.288;2023-09-19T13:04:58;13.57;;;8.73;;
50393;SDS011;36308;46.312;25.288;2023-09-19T13:07:43;12.30;;;8.30;;
50393;SDS011;36308;46.312;25.288;2023-09-19T13:10:14;12.65;;;8.32;;
50393;SDS011;36308;46.312;25.288;2023-09-19T13:12:41;10.20;;;7.60;;
50393;SDS011;36308;46.312;25.288;2023-09-19T13:15:12;12.52;;;9.95;;
50393;SDS011;36308;46.312;25.288;2023-09-19T13:17:43;13.88;;;10.35;;
50393;SDS011;36308;46.312;25.288;2023-09-19T13:20:25;12.88;;;9.07;;
50393;SDS011;36308;46.312;25.288;2023-09-19T13:22:57;11.93;;;9.13;;
50393;SDS011;36308;46.312;25.288;2023-09-19T13:25:33;10.80;;;8.02;;
50393;SDS011;36308;46.312;25.288;2023-09-19T13:27:59;12.35;;;7.95;;
50393;SDS011;36308;46.312;25.288;2023-09-19T13:30:29;8.70;;;7.22;;
50393;SDS011;36308;46.312;25.288;2023-09-19T13:33:09;9.73;;;7.03;;
50393;SDS011;36308;46.312;25.288;2023-09-19T13:35:36;8.18;;;6.97;;
50393;SDS011;36308;46.312;25.288;2023-09-19T13:38:05;9.85;;;7.22;;
50393;SDS011;36308;46.312;25.288;2023-09-19T13:40:31;10.10;;;7.35;;
50393;SDS011;36308;46.312;25.288;2023-09-19T13:43:00;10.65;;;7.55;;
50393;SDS011;36308;46.312;25.288;2023-09-19T13:45:26;8.95;;;7.20;;
50393;SDS011;36308;46.312;25.288;2023-09-19T13:47:52;10.48;;;7.65;;
50393;SDS011;36308;46.312;25.288;2023-09-19T13:50:18;11.55;;;7.38;;
50393;SDS011;36308;46.312;25.288;2023-09-19T13:52:52;9.98;;;7.30;;
50393;SDS011;36308;46.312;25.288;2023-09-19T13:55:18;10.23;;;7.50;;
50393;SDS011;36308;46.312;25.288;2023-09-19T13:57:48;8.52;;;7.00;;
50393;SDS011;36308;46.312;25.288;2023-09-19T14:00:19;8.25;;;6.68;;
50393;SDS011;36308;46.312;25.288;2023-09-19T14:02:45;9.00;;;6.57;;
50393;SDS011;36308;46.312;25.288;2023-09-19T14:05:12;10.10;;;7.28;;
50393;SDS011;36308;46.312;25.288;2023-09-19T14:07:40;11.07;;;7.25;;
50393;SDS011;36308;46.312;25.288;2023-09-19T14:10:06;8.27;;;6.68;;
50393;SDS011;36308;46.312;25.288;2023-09-19T14:12:38;10.02;;;6.63;;
50393;SDS011;36308;46.312;25.288;2023-09-19T14:15:10;8.52;;;6.63;;
50393;SDS011;36308;46.312;25.288;2023-09-19T14:17:36;9.95;;;6.95;;
50393;SDS011;36308;46.312;25.288;2023-09-19T14:20:02;11.38;;;7.25;;
50393;SDS011;36308;46.312;25.288;2023-09-19T14:22:28;11.95;;;6.80;;
50393;SDS011;36308;46.312;25.288;2023-09-19T14:24:56;8.30;;;6.70;;
50393;SDS011;36308;46.312;25.288;2023-09-19T14:27:21;9.25;;;6.50;;
50393;SDS011;36308;46.312;25.288;2023-09-19T14:29:47;10.05;;;6.63;;
50393;SDS011;36308;46.312;25.288;2023-09-19T14:32:12;8.20;;;6.70;;
50393;SDS011;36308;46.312;25.288;2023-09-19T14:34:38;12.38;;;8.38;;
50393;SDS011;36308;46.312;25.288;2023-09-19T14:37:07;8.48;;;7.05;;
50393;SDS011;36308;46.312;25.288;2023-09-19T14:39:33;8.45;;;6.85;;
50393;SDS011;36308;46.312;25.288;2023-09-19T14:41:59;8.73;;;6.93;;
50393;SDS011;36308;46.312;25.288;2023-09-19T14:44:24;10.18;;;7.15;;
50393;SDS011;36308;46.312;25.288;2023-09-19T14:46:50;8.63;;;6.63;;
50393;SDS011;36308;46.312;25.288;2023-09-19T14:49:15;8.05;;;6.95;;
50393;SDS011;36308;46.312;25.288;2023-09-19T14:51:42;8.85;;;6.50;;
50393;SDS011;36308;46.312;25.288;2023-09-19T14:54:09;30.98;;;16.65;;
50393;SDS011;36308;46.312;25.288;2023-09-19T14:56:35;8.88;;;6.35;;
50393;SDS011;36308;46.312;25.288;2023-09-19T14:59:00;10.27;;;6.63;;
50393;SDS011;36308;46.312;25.288;2023-09-19T15:01:27;11.00;;;7.68;;
50393;SDS011;36308;46.312;25.288;2023-09-19T15:03:53;13.57;;;8.13;;
50393;SDS011;36308;46.312;25.288;2023-09-19T15:06:20;52.45;;;23.58;;
50393;SDS011;36308;46.312;25.288;2023-09-19T15:08:47;13.23;;;7.68;;
50393;SDS011;36308;46.312;25.288;2023-09-19T15:11:13;56.20;;;19.80;;
50393;SDS011;36308;46.312;25.288;2023-09-19T15:13:41;28.70;;;13.57;;
50393;SDS011;36308;46.312;25.288;2023-09-19T15:16:08;17.60;;;10.18;;
50393;SDS011;36308;46.312;25.288;2023-09-19T15:18:34;15.98;;;9.45;;
50393;SDS011;36308;46.312;25.288;2023-09-19T15:21:03;16.17;;;9.30;;
50393;SDS011;36308;46.312;25.288;2023-09-19T15:23:32;12.27;;;8.05;;
50393;SDS011;36308;46.312;25.288;2023-09-19T15:26:02;11.23;;;8.23;;
50393;SDS011;36308;46.312;25.288;2023-09-19T15:28:32;15.33;;;9.80;;
50393;SDS011;36308;46.312;25.288;2023-09-19T15:31:03;12.52;;;9.10;;
50393;SDS011;36308;46.312;25.288;2023-09-19T15:33:31;11.68;;;8.88;;
50393;SDS011;36308;46.312;25.288;2023-09-19T15:36:01;18.17;;;12.93;;